CPX212 Details

Departure: March Air Reserve Base (KRIV)
Arrival: Sacramento International Airport (KSMF)
Route: SLI J78 LAX J5 LANDO NURAY SUUTR2


Current Weather Information
KRIV 190758Z AUTO 00000KT 10SM CLR 08/08 A2998 RMK AO2 SLP146 T00780078 402580040
KSMF 190753Z 30005KT 10SM FEW180 SCT250 12/09 A2991 RMK AO2 SLP127 T01170094 402280050